Time;durP1;ratioP1;P1;durP2;ratioP2;P2;SDS_P1;SDS_P2;PMS_P1;PMS_P2;Temp;Humidity;BMP_temperature;BMP_pressure;BME280_temperature;BME280_humidity;BME280_pressure;Samples;Min_cycle;Max_cycle;Signal;HPM_P1;HPM_P2
2021/12/20 00:01:10;;;;;;;2.33;1.13;;;2.10;99.90;;;;;;5046311;28;20187;-73
2021/12/20 00:03:35;;;;;;;4.40;1.97;;;2.10;99.90;;;;;;5038036;28;20303;-72
2021/12/20 00:06:01;;;;;;;4.00;0.87;;;2.10;99.90;;;;;;5044076;28;20278;-72
2021/12/20 00:08:28;;;;;;;2.77;1.20;;;2.00;99.90;;;;;;5043614;28;20226;-71
2021/12/20 00:10:54;;;;;;;1.73;0.87;;;2.00;99.90;;;;;;5046834;28;20185;-72
2021/12/20 00:13:20;;;;;;;0.70;0.67;;;2.00;99.90;;;;;;5041752;28;20303;-71
2021/12/20 00:15:45;;;;;;;1.20;0.90;;;2.00;99.90;;;;;;5047296;28;20277;-73
2021/12/20 00:18:11;;;;;;;1.53;0.90;;;2.00;99.90;;;;;;5040733;28;20207;-73
2021/12/20 00:20:37;;;;;;;4.10;1.33;;;1.90;99.90;;;;;;5038391;28;20290;-74
2021/12/20 00:23:04;;;;;;;2.07;0.97;;;1.90;99.90;;;;;;5049843;28;20272;-74
2021/12/20 00:25:30;;;;;;;2.10;1.10;;;1.90;99.90;;;;;;5048566;28;20236;-70
2021/12/20 00:27:56;;;;;;;2.47;1.10;;;1.90;99.90;;;;;;5053768;28;20262;-69
2021/12/20 00:30:22;;;;;;;1.73;1.17;;;1.90;99.90;;;;;;5054238;28;20286;-70
2021/12/20 00:32:47;;;;;;;1.63;0.90;;;1.90;99.90;;;;;;5048552;28;20203;-73
2021/12/20 00:35:13;;;;;;;4.37;1.60;;;1.80;99.90;;;;;;5046985;28;20265;-72
2021/12/20 00:40:23;;;;;;;1.33;1.03;;;1.80;99.90;;;;;;5035142;28;20194;-75
2021/12/20 00:42:54;;;;;;;1.03;0.93;;;1.90;99.90;;;;;;5051717;28;20221;-74
2021/12/20 00:45:21;;;;;;;1.60;0.73;;;1.90;99.90;;;;;;5037578;28;20187;-72
2021/12/20 00:47:47;;;;;;;5.20;1.23;;;1.80;99.90;;;;;;5045282;28;20241;-72
2021/12/20 00:50:15;;;;;;;0.97;0.80;;;1.80;99.90;;;;;;5054307;28;20655;-72
2021/12/20 00:52:41;;;;;;;3.07;0.97;;;1.80;99.90;;;;;;5037248;28;20955;-74
2021/12/20 00:55:08;;;;;;;2.33;0.97;;;1.70;99.90;;;;;;5039374;28;20592;-71
2021/12/20 00:57:34;;;;;;;1.17;1.00;;;1.70;99.90;;;;;;5045492;28;20211;-71
2021/12/20 00:59:59;;;;;;;3.03;0.70;;;1.70;99.90;;;;;;5042625;28;20202;-70
2021/12/20 01:02:25;;;;;;;2.53;1.00;;;1.70;99.90;;;;;;5057080;28;20222;-72
2021/12/20 01:04:51;;;;;;;3.53;1.53;;;1.70;99.90;;;;;;5046197;28;20241;-74
2021/12/20 01:07:16;;;;;;;5.00;1.40;;;1.60;99.90;;;;;;5056432;28;20569;-75
2021/12/20 01:09:42;;;;;;;6.00;1.37;;;1.60;99.90;;;;;;5034085;28;20625;-72
2021/12/20 01:12:15;;;;;;;2.40;1.10;;;1.70;99.90;;;;;;5023887;28;20270;-62
2021/12/20 01:14:40;;;;;;;2.83;1.03;;;1.60;99.90;;;;;;5050984;28;20195;-62
2021/12/20 01:17:06;;;;;;;1.80;1.10;;;1.60;99.90;;;;;;5034148;28;20309;-62
2021/12/20 01:19:33;;;;;;;2.60;1.40;;;1.60;99.90;;;;;;5050245;28;20197;-62
2021/12/20 01:21:59;;;;;;;0.97;0.77;;;1.60;99.90;;;;;;5033947;28;20674;-65
2021/12/20 01:24:25;;;;;;;4.73;0.93;;;1.60;99.90;;;;;;5056482;28;20205;-65
2021/12/20 01:26:51;;;;;;;4.07;0.80;;;1.50;99.90;;;;;;5030502;28;20212;-64
2021/12/20 01:29:16;;;;;;;2.17;0.90;;;1.50;99.90;;;;;;5058014;28;20186;-63
2021/12/20 01:31:42;;;;;;;1.37;1.07;;;1.50;99.90;;;;;;5035815;28;20198;-62
2021/12/20 01:34:07;;;;;;;1.57;0.73;;;1.50;99.90;;;;;;5051372;28;20704;-64
2021/12/20 01:36:33;;;;;;;2.43;0.80;;;1.40;99.90;;;;;;5038041;28;20206;-64
2021/12/20 01:38:59;;;;;;;2.10;1.07;;;1.40;99.90;;;;;;5055573;28;20230;-64
2021/12/20 01:41:24;;;;;;;4.90;1.03;;;1.40;99.90;;;;;;5036096;28;20412;-63
2021/12/20 01:43:50;;;;;;;1.97;0.87;;;1.40;99.90;;;;;;5052370;28;20683;-63
2021/12/20 01:46:15;;;;;;;2.27;1.00;;;1.40;99.90;;;;;;5034355;28;20208;-63
2021/12/20 01:48:43;;;;;;;1.90;0.70;;;1.40;99.90;;;;;;5044829;28;20219;-64
2021/12/20 01:53:40;;;;;;;4.43;1.37;;;1.40;99.90;;;;;;5053106;28;20510;-64
2021/12/20 01:56:07;;;;;;;4.53;1.13;;;1.40;99.90;;;;;;5033153;28;20210;-64
2021/12/20 01:58:32;;;;;;;4.33;1.17;;;1.40;99.90;;;;;;5050673;28;20229;-64
2021/12/20 02:01:19;;;;;;;4.43;1.27;;;1.40;99.90;;;;;;5051622;28;20234;-64
2021/12/20 02:03:49;;;;;;;4.27;1.10;;;1.40;99.90;;;;;;5041581;28;20220;-64
2021/12/20 02:09:06;;;;;;;2.47;0.80;;;1.30;99.90;;;;;;5029695;28;21030;-64
2021/12/20 02:11:32;;;;;;;1.23;0.53;;;1.30;99.90;;;;;;5028270;28;20245;-64
2021/12/20 02:13:58;;;;;;;2.37;2.03;;;1.40;99.90;;;;;;5047010;28;20192;-64
2021/12/20 02:16:24;;;;;;;6.73;1.40;;;1.30;99.90;;;;;;5039395;28;20206;-64
2021/12/20 02:18:50;;;;;;;5.53;1.10;;;1.30;99.90;;;;;;5044542;28;20191;-64
2021/12/20 02:21:16;;;;;;;3.27;1.20;;;1.20;99.90;;;;;;5035821;28;20670;-64
2021/12/20 02:23:43;;;;;;;4.00;1.20;;;1.30;99.90;;;;;;5042637;28;20596;-65
2021/12/20 02:26:11;;;;;;;6.40;1.30;;;1.20;99.90;;;;;;5040332;28;20202;-65
2021/12/20 02:28:43;;;;;;;6.53;1.40;;;1.20;99.90;;;;;;5054258;28;20224;-64
2021/12/20 02:39:58;;;;;;;3.47;1.20;;;1.20;99.90;;;;;;4974499;28;20270;-65
2021/12/20 02:42:29;;;;;;;2.33;0.63;;;1.20;99.90;;;;;;4989202;28;20239;-65
2021/12/20 02:45:11;;;;;;;2.73;1.07;;;1.20;99.90;;;;;;4976821;28;20192;-65
2021/12/20 02:47:39;;;;;;;2.50;0.97;;;1.20;99.90;;;;;;4970066;28;20264;-65
2021/12/20 02:50:05;;;;;;;3.37;1.13;;;1.20;99.90;;;;;;4979551;28;20208;-64
2021/12/20 02:52:30;;;;;;;1.20;0.73;;;1.10;99.90;;;;;;4989153;28;20247;-64
2021/12/20 02:54:56;;;;;;;6.60;1.13;;;1.20;99.90;;;;;;4976739;28;20208;-65
2021/12/20 02:57:21;;;;;;;1.23;0.80;;;1.10;99.90;;;;;;4969553;28;20180;-65
2021/12/20 02:59:47;;;;;;;5.90;1.47;;;1.10;99.90;;;;;;4977285;28;20206;-65
2021/12/20 03:02:13;;;;;;;4.13;1.27;;;1.10;99.90;;;;;;4988901;28;20232;-68
2021/12/20 03:04:39;;;;;;;3.90;0.70;;;1.10;99.90;;;;;;4978589;28;20208;-65
2021/12/20 03:07:09;;;;;;;4.47;1.00;;;1.10;99.90;;;;;;4969278;28;20551;-66
2021/12/20 03:09:42;;;;;;;2.37;0.90;;;1.20;99.90;;;;;;4975378;28;20210;-64
2021/12/20 03:12:10;;;;;;;2.30;0.87;;;1.20;99.90;;;;;;4989130;28;20521;-64
2021/12/20 03:14:40;;;;;;;2.87;0.97;;;1.20;99.90;;;;;;4978928;28;20738;-65
2021/12/20 03:17:06;;;;;;;2.93;1.27;;;1.10;99.90;;;;;;4969355;28;20191;-64
2021/12/20 03:19:31;;;;;;;1.33;0.73;;;1.10;99.90;;;;;;4974812;28;20663;-64
2021/12/20 03:21:58;;;;;;;3.63;0.97;;;1.20;99.90;;;;;;4988457;28;20188;-64
2021/12/20 03:24:24;;;;;;;4.50;2.03;;;1.20;99.90;;;;;;4980309;28;20213;-64
2021/12/20 03:26:49;;;;;;;5.23;1.20;;;1.20;99.90;;;;;;4969143;28;20646;-64
2021/12/20 03:29:15;;;;;;;4.87;1.27;;;1.20;99.90;;;;;;4972665;28;20208;-64
2021/12/20 03:31:41;;;;;;;2.07;0.93;;;1.20;99.90;;;;;;4989702;28;20269;-64
2021/12/20 03:34:07;;;;;;;4.73;1.00;;;1.20;99.90;;;;;;4967041;28;20238;-63
2021/12/20 03:36:33;;;;;;;1.93;0.87;;;1.20;99.90;;;;;;4987825;28;20219;-64
2021/12/20 03:38:59;;;;;;;2.80;1.30;;;1.20;99.90;;;;;;4985201;28;20237;-64
2021/12/20 03:41:25;;;;;;;4.30;1.50;;;1.20;99.90;;;;;;4988170;28;20196;-63
2021/12/20 03:43:51;;;;;;;2.17;1.13;;;1.20;99.90;;;;;;4968821;28;20225;-64
2021/12/20 03:46:17;;;;;;;4.00;1.20;;;1.20;99.90;;;;;;4968077;28;20587;-63
2021/12/20 03:48:42;;;;;;;1.20;0.90;;;1.10;99.90;;;;;;4982676;28;20203;-63
2021/12/20 03:51:08;;;;;;;3.90;1.47;;;1.10;99.90;;;;;;4988029;28;20195;-64
2021/12/20 03:53:34;;;;;;;3.43;0.97;;;1.10;99.90;;;;;;4971109;28;20209;-64
2021/12/20 03:56:02;;;;;;;4.40;1.50;;;1.10;99.90;;;;;;4968278;28;20241;-64
2021/12/20 03:58:27;;;;;;;4.40;1.57;;;1.00;99.90;;;;;;4980558;28;20202;-64
2021/12/20 04:00:55;;;;;;;5.57;1.43;;;1.00;99.90;;;;;;4987714;28;20656;-65
2021/12/20 04:03:20;;;;;;;4.47;1.30;;;1.00;99.90;;;;;;4972583;28;20257;-65
2021/12/20 04:05:46;;;;;;;7.67;1.17;;;1.00;99.90;;;;;;4968075;28;20936;-64
2021/12/20 04:08:11;;;;;;;4.50;1.50;;;1.00;99.90;;;;;;4978066;28;20630;-64
2021/12/20 04:10:37;;;;;;;2.50;1.33;;;1.00;99.90;;;;;;4987388;28;20176;-63
2021/12/20 04:13:03;;;;;;;4.20;1.40;;;1.00;99.90;;;;;;4974726;28;20211;-63
2021/12/20 04:15:28;;;;;;;10.37;1.37;;;1.00;99.90;;;;;;4967744;28;20274;-64
2021/12/20 04:17:54;;;;;;;1.40;0.90;;;1.00;99.90;;;;;;4975705;28;20239;-64
2021/12/20 04:20:20;;;;;;;5.47;1.33;;;1.00;99.90;;;;;;4987136;28;20788;-64
2021/12/20 04:22:46;;;;;;;3.50;1.40;;;0.90;99.90;;;;;;4976514;28;20225;-64
2021/12/20 04:25:12;;;;;;;3.00;1.20;;;0.90;99.90;;;;;;4967814;28;20194;-64
2021/12/20 04:27:38;;;;;;;2.83;1.03;;;0.90;99.90;;;;;;4973323;28;20664;-64
2021/12/20 04:30:09;;;;;;;3.43;1.10;;;0.90;99.90;;;;;;4986984;28;20191;-64
2021/12/20 04:32:39;;;;;;;3.37;1.20;;;0.90;99.90;;;;;;4978513;28;20213;-64
2021/12/20 04:35:06;;;;;;;3.07;1.30;;;0.90;99.90;;;;;;4980914;28;20255;-64
2021/12/20 04:37:31;;;;;;;3.97;1.23;;;0.80;99.90;;;;;;4978264;28;20688;-64
2021/12/20 04:39:58;;;;;;;5.43;1.33;;;0.80;99.90;;;;;;4982796;28;20293;-64
2021/12/20 04:42:24;;;;;;;2.63;1.27;;;0.80;99.90;;;;;;4982068;28;20216;-64
2021/12/20 04:44:49;;;;;;;3.53;1.03;;;0.80;99.90;;;;;;4985168;28;20192;-64
2021/12/20 04:47:14;;;;;;;1.83;1.20;;;0.80;99.90;;;;;;4969373;28;20659;-65
2021/12/20 04:49:40;;;;;;;6.23;1.70;;;0.70;99.90;;;;;;4972662;28;20261;-63
2021/12/20 04:52:06;;;;;;;1.60;1.20;;;0.80;99.90;;;;;;4976759;28;20689;-64
2021/12/20 04:54:31;;;;;;;5.27;2.30;;;0.70;99.90;;;;;;4972905;28;20191;-64
2021/12/20 04:56:56;;;;;;;3.27;1.13;;;0.70;99.90;;;;;;4981353;28;20292;-65
2021/12/20 04:59:22;;;;;;;2.67;1.30;;;0.80;99.90;;;;;;4974232;28;20181;-65
2021/12/20 05:01:47;;;;;;;4.73;1.10;;;0.80;99.90;;;;;;4982688;28;20260;-63
2021/12/20 05:04:13;;;;;;;7.73;1.70;;;0.80;99.90;;;;;;4966060;28;20188;-65
2021/12/20 05:06:39;;;;;;;1.77;1.20;;;0.80;99.90;;;;;;4965583;28;20199;-65
2021/12/20 05:09:05;;;;;;;8.90;1.13;;;0.80;99.90;;;;;;4965220;28;20717;-65
2021/12/20 05:11:33;;;;;;;2.67;1.60;;;0.80;99.90;;;;;;4964996;28;20194;-64
2021/12/20 05:14:00;;;;;;;5.20;1.57;;;0.80;99.90;;;;;;4964931;28;20633;-65
2021/12/20 05:16:26;;;;;;;4.70;2.40;;;0.80;99.90;;;;;;4965541;28;20256;-65
2021/12/20 05:18:51;;;;;;;4.47;1.97;;;0.80;99.90;;;;;;4964677;28;20207;-64
2021/12/20 05:21:17;;;;;;;1.53;1.27;;;0.90;99.90;;;;;;4966940;28;20190;-64
2021/12/20 05:23:43;;;;;;;3.67;1.57;;;0.90;99.90;;;;;;4964715;28;20228;-65
2021/12/20 05:26:08;;;;;;;4.87;1.80;;;0.80;99.90;;;;;;4965406;28;20203;-65
2021/12/20 05:28:34;;;;;;;4.63;1.60;;;0.90;99.90;;;;;;4965462;28;20282;-65
2021/12/20 05:30:59;;;;;;;5.00;1.47;;;0.90;99.90;;;;;;4967130;28;20186;-64
2021/12/20 05:33:25;;;;;;;7.77;1.73;;;0.90;99.90;;;;;;4964813;28;20269;-64
2021/12/20 05:35:50;;;;;;;7.30;1.50;;;0.90;99.90;;;;;;4964980;28;20217;-64
2021/12/20 05:38:16;;;;;;;4.83;1.30;;;0.90;99.90;;;;;;4965299;28;20196;-66
2021/12/20 05:40:42;;;;;;;2.53;1.20;;;0.90;99.90;;;;;;4932299;28;980309;-64
2021/12/20 05:43:07;;;;;;;4.47;1.33;;;1.00;99.90;;;;;;4964200;28;20616;-64
2021/12/20 05:45:34;;;;;;;5.97;1.70;;;1.00;99.90;;;;;;4967008;28;20678;-64
2021/12/20 05:47:59;;;;;;;1.60;1.13;;;1.00;99.90;;;;;;4965390;28;20706;-64
2021/12/20 05:50:26;;;;;;;3.87;1.30;;;1.00;99.90;;;;;;4967042;28;20168;-64
2021/12/20 05:52:52;;;;;;;3.23;1.73;;;1.00;99.90;;;;;;4967551;28;20209;-63
2021/12/20 05:55:18;;;;;;;6.57;1.93;;;1.00;99.90;;;;;;4966451;28;20179;-65
2021/12/20 05:57:45;;;;;;;8.70;1.87;;;1.10;99.90;;;;;;4966953;28;21033;-64
2021/12/20 06:00:14;;;;;;;8.67;1.73;;;1.00;99.90;;;;;;4972682;28;20660;-64
2021/12/20 06:02:41;;;;;;;2.50;1.00;;;1.10;99.90;;;;;;4965317;28;20209;-65
2021/12/20 06:05:07;;;;;;;1.37;1.00;;;1.10;99.90;;;;;;4969138;28;20216;-65
2021/12/20 06:07:32;;;;;;;5.37;1.57;;;1.10;99.90;;;;;;4968659;28;20182;-71
2021/12/20 06:09:58;;;;;;;1.23;0.80;;;1.20;99.90;;;;;;4968368;28;20236;-65
2021/12/20 06:12:23;;;;;;;2.77;1.20;;;1.40;99.90;;;;;;4967821;28;20560;-65
2021/12/20 06:14:52;;;;;;;5.27;1.77;;;1.50;99.90;;;;;;4967501;28;20750;-63
2021/12/20 06:17:18;;;;;;;1.87;1.07;;;1.50;99.90;;;;;;4968088;28;20193;-63
2021/12/20 06:19:43;;;;;;;2.67;1.17;;;1.40;99.90;;;;;;4964881;28;20211;-64
2021/12/20 06:22:10;;;;;;;4.53;1.20;;;1.30;99.90;;;;;;4968424;28;20208;-65
2021/12/20 06:24:36;;;;;;;2.30;1.33;;;1.20;99.90;;;;;;4967936;28;20283;-65
2021/12/20 06:27:01;;;;;;;4.77;1.57;;;1.20;99.90;;;;;;4977810;28;20259;-66
2021/12/20 06:29:27;;;;;;;3.90;1.43;;;1.20;99.90;;;;;;4967377;28;20688;-65
2021/12/20 06:31:52;;;;;;;3.87;1.80;;;1.20;99.90;;;;;;4977758;28;20203;-65
2021/12/20 06:34:19;;;;;;;5.43;1.67;;;1.20;99.90;;;;;;4981913;28;20732;-65
2021/12/20 06:36:44;;;;;;;3.20;1.40;;;1.20;99.90;;;;;;4985058;28;20255;-66
2021/12/20 06:39:10;;;;;;;7.20;2.00;;;1.10;99.90;;;;;;4966104;28;20783;-66
2021/12/20 06:41:36;;;;;;;4.83;1.47;;;1.20;99.90;;;;;;4963223;28;20276;-64
2021/12/20 06:44:04;;;;;;;5.10;1.80;;;1.10;99.90;;;;;;4967365;28;21093;-64
2021/12/20 06:46:30;;;;;;;3.27;1.73;;;1.10;99.90;;;;;;4968421;28;20204;-65
2021/12/20 06:48:56;;;;;;;6.63;1.97;;;1.10;99.90;;;;;;4968432;28;20197;-64
2021/12/20 06:51:21;;;;;;;1.67;1.23;;;1.10;99.90;;;;;;4962326;28;20193;-64
2021/12/20 06:53:47;;;;;;;3.73;1.63;;;1.10;99.90;;;;;;4965904;28;20275;-64
2021/12/20 06:56:13;;;;;;;2.40;1.57;;;1.10;99.90;;;;;;4967647;28;20205;-65
2021/12/20 06:58:39;;;;;;;3.83;1.77;;;1.10;99.90;;;;;;4966204;28;20213;-63
2021/12/20 07:01:04;;;;;;;4.07;1.30;;;1.10;99.90;;;;;;4978005;28;20205;-65
2021/12/20 07:03:30;;;;;;;6.00;1.27;;;1.20;99.90;;;;;;4976166;28;20706;-64
2021/12/20 07:05:55;;;;;;;5.77;1.00;;;1.20;99.90;;;;;;4978593;28;20208;-64
2021/12/20 07:08:22;;;;;;;6.50;1.60;;;1.20;99.90;;;;;;4974287;28;20220;-64
2021/12/20 07:10:48;;;;;;;1.27;1.00;;;1.10;99.90;;;;;;4982306;28;20298;-65
2021/12/20 07:13:14;;;;;;;3.30;1.13;;;1.10;99.90;;;;;;4981042;28;20193;-64
2021/12/20 07:15:40;;;;;;;2.07;1.30;;;1.10;99.90;;;;;;4985722;28;20258;-64
2021/12/20 07:18:05;;;;;;;3.07;1.60;;;1.10;99.90;;;;;;4983413;28;20198;-65
2021/12/20 07:20:31;;;;;;;5.13;1.30;;;1.10;99.90;;;;;;4984070;28;20258;-65
2021/12/20 07:22:56;;;;;;;8.60;1.53;;;1.10;99.90;;;;;;4974613;28;20231;-61
2021/12/20 07:25:22;;;;;;;3.33;1.37;;;1.10;99.90;;;;;;4980546;28;20301;-62
2021/12/20 07:27:49;;;;;;;3.73;1.63;;;1.10;99.90;;;;;;4974986;28;20204;-62
2021/12/20 07:30:15;;;;;;;1.83;1.33;;;1.10;99.90;;;;;;4969183;28;20205;-64
2021/12/20 07:32:41;;;;;;;2.47;1.20;;;1.10;99.90;;;;;;4965664;28;20212;-64
2021/12/20 07:35:06;;;;;;;3.90;1.30;;;1.10;99.90;;;;;;4970276;28;20698;-64
2021/12/20 07:37:32;;;;;;;1.70;1.20;;;1.10;99.90;;;;;;4965587;28;20252;-65
2021/12/20 07:39:57;;;;;;;3.93;1.23;;;1.10;99.90;;;;;;4970159;28;20718;-64
2021/12/20 07:42:23;;;;;;;2.57;1.70;;;1.10;99.90;;;;;;4961184;28;20317;-64
2021/12/20 07:44:49;;;;;;;4.00;1.53;;;1.10;99.90;;;;;;4971510;28;20193;-64
2021/12/20 07:47:14;;;;;;;5.47;1.73;;;1.10;99.90;;;;;;4968878;28;20202;-66
2021/12/20 07:49:40;;;;;;;3.37;1.70;;;1.10;99.90;;;;;;4968393;28;20286;-64
2021/12/20 07:52:06;;;;;;;8.83;1.83;;;1.10;99.90;;;;;;4966460;28;20195;-64
2021/12/20 07:54:31;;;;;;;6.47;3.37;;;1.10;99.90;;;;;;4968279;28;20608;-63
2021/12/20 07:56:57;;;;;;;1.60;1.50;;;1.10;99.90;;;;;;4971553;28;21495;-64
2021/12/20 07:59:23;;;;;;;4.37;2.50;;;1.10;99.90;;;;;;4965206;28;20329;-63
2021/12/20 08:01:49;;;;;;;2.83;2.03;;;1.10;99.90;;;;;;4984604;28;20194;-64
2021/12/20 08:04:16;;;;;;;6.17;1.90;;;1.10;99.90;;;;;;4977498;28;20213;-64
2021/12/20 08:06:43;;;;;;;7.00;2.07;;;1.10;99.90;;;;;;4987741;28;20193;-64
2021/12/20 08:09:10;;;;;;;4.43;1.57;;;1.10;99.90;;;;;;4966945;28;20214;-64
2021/12/20 08:11:35;;;;;;;2.57;1.23;;;1.10;99.90;;;;;;4982335;28;20192;-64
2021/12/20 08:14:01;;;;;;;3.30;1.80;;;1.10;99.90;;;;;;4966643;28;20552;-63
2021/12/20 08:16:27;;;;;;;3.67;1.47;;;1.10;99.90;;;;;;4986531;28;20214;-65
2021/12/20 08:18:52;;;;;;;5.20;1.60;;;1.10;99.90;;;;;;4975992;28;20214;-64
2021/12/20 08:21:18;;;;;;;6.60;3.03;;;1.10;99.90;;;;;;4986609;28;20196;-64
2021/12/20 08:23:43;;;;;;;3.77;1.60;;;1.10;99.90;;;;;;4968127;28;20218;-65
2021/12/20 08:26:09;;;;;;;3.27;1.57;;;1.10;99.90;;;;;;4970327;28;20255;-65
2021/12/20 08:28:35;;;;;;;9.20;1.87;;;1.20;99.90;;;;;;4969311;28;20222;-63
2021/12/20 08:31:05;;;;;;;3.73;2.10;;;1.20;99.90;;;;;;4966443;28;20256;-63
2021/12/20 08:33:32;;;;;;;1.70;1.60;;;1.20;99.90;;;;;;4968203;28;20190;-63
2021/12/20 08:36:10;;;;;;;2.77;1.30;;;1.30;99.90;;;;;;4967824;28;20280;-64
2021/12/20 08:38:35;;;;;;;5.10;1.80;;;1.30;99.90;;;;;;4970212;28;20682;-64
2021/12/20 08:41:02;;;;;;;8.50;1.83;;;1.30;99.90;;;;;;4967280;28;20219;-63
2021/12/20 08:43:28;;;;;;;3.70;1.87;;;1.20;99.90;;;;;;4966861;28;20853;-66
2021/12/20 08:45:54;;;;;;;4.70;1.40;;;1.30;99.90;;;;;;4968624;28;20209;-65
2021/12/20 08:48:20;;;;;;;9.00;1.70;;;1.30;99.90;;;;;;4968532;28;20179;-66
2021/12/20 08:50:46;;;;;;;3.07;1.43;;;1.30;99.90;;;;;;4963890;28;20660;-65
2021/12/20 08:53:13;;;;;;;3.23;1.53;;;1.30;99.90;;;;;;4968853;28;20969;-64
2021/12/20 08:55:39;;;;;;;3.37;1.60;;;1.40;99.90;;;;;;4966384;28;20226;-64
2021/12/20 08:58:05;;;;;;;3.00;1.50;;;1.40;99.90;;;;;;4969629;28;20202;-63
2021/12/20 09:00:34;;;;;;;5.73;1.73;;;1.40;99.90;;;;;;4979404;28;20204;-64
2021/12/20 09:03:00;;;;;;;2.97;1.43;;;1.40;99.90;;;;;;4985681;28;20205;-63
2021/12/20 09:05:28;;;;;;;3.20;1.70;;;1.40;99.90;;;;;;4985369;28;20206;-65
2021/12/20 09:07:56;;;;;;;3.43;1.80;;;1.50;99.90;;;;;;4976868;28;20271;-64
2021/12/20 09:10:22;;;;;;;2.77;1.57;;;1.50;99.90;;;;;;4985332;28;20215;-64
2021/12/20 09:12:47;;;;;;;3.80;1.40;;;1.50;99.90;;;;;;4968039;28;20676;-64
2021/12/20 09:15:16;;;;;;;2.80;1.80;;;1.50;99.90;;;;;;4985746;28;20736;-64
2021/12/20 09:17:43;;;;;;;5.30;1.80;;;1.50;99.90;;;;;;4965647;28;20296;-64
2021/12/20 09:20:10;;;;;;;4.93;1.67;;;1.60;99.90;;;;;;4982819;28;20200;-64
2021/12/20 09:22:48;;;;;;;3.10;1.97;;;1.60;99.90;;;;;;4976217;28;20221;-64
2021/12/20 09:25:13;;;;;;;5.30;1.90;;;1.60;99.90;;;;;;4976914;28;20205;-63
2021/12/20 09:27:39;;;;;;;6.37;1.47;;;1.60;99.90;;;;;;4967649;28;20205;-63
2021/12/20 09:30:05;;;;;;;1.73;1.30;;;1.60;99.90;;;;;;4985729;28;20308;-63
2021/12/20 09:32:31;;;;;;;8.20;1.83;;;1.60;99.90;;;;;;4967096;28;20229;-63
2021/12/20 09:34:56;;;;;;;3.57;2.07;;;1.70;99.90;;;;;;4984454;28;20690;-63
2021/12/20 09:37:23;;;;;;;3.10;2.43;;;1.70;99.90;;;;;;4968641;28;20304;-64
2021/12/20 09:39:53;;;;;;;1.87;1.60;;;1.70;99.90;;;;;;4985104;28;20600;-63
2021/12/20 09:42:18;;;;;;;6.60;2.50;;;1.80;99.90;;;;;;4968589;28;20202;-63
2021/12/20 09:44:44;;;;;;;3.90;1.90;;;1.80;99.90;;;;;;4982009;28;20285;-64
2021/12/20 09:47:10;;;;;;;3.77;1.80;;;1.90;99.90;;;;;;4971244;28;20197;-64
2021/12/20 09:49:36;;;;;;;9.47;1.80;;;1.90;99.90;;;;;;4985149;28;20195;-63
2021/12/20 09:52:02;;;;;;;4.43;2.43;;;1.90;99.90;;;;;;4972750;28;20271;-65
2021/12/20 09:54:29;;;;;;;2.30;1.37;;;2.00;99.90;;;;;;4985108;28;20647;-64
2021/12/20 09:56:57;;;;;;;12.07;2.40;;;1.90;99.90;;;;;;4971717;28;20205;-64
2021/12/20 09:59:26;;;;;;;4.33;1.70;;;2.00;99.90;;;;;;4985016;28;20193;-64
2021/12/20 10:01:53;;;;;;;6.17;2.30;;;2.00;99.90;;;;;;4971889;28;20776;-66
2021/12/20 10:04:20;;;;;;;5.60;1.83;;;2.00;99.90;;;;;;4984732;28;20216;-65
2021/12/20 10:06:50;;;;;;;6.13;1.47;;;2.00;99.90;;;;;;4983204;28;20201;-65
2021/12/20 10:09:16;;;;;;;3.67;1.87;;;2.00;99.90;;;;;;4961946;28;20649;-64
2021/12/20 10:11:43;;;;;;;5.60;1.67;;;2.00;99.90;;;;;;4983169;28;20884;-64
2021/12/20 10:14:16;;;;;;;4.03;1.63;;;2.00;99.90;;;;;;4984961;28;20570;-64
2021/12/20 10:16:43;;;;;;;5.20;1.93;;;2.10;99.90;;;;;;4980485;28;20307;-64
2021/12/20 10:19:30;;;;;;;8.33;1.93;;;2.20;99.90;;;;;;4984110;28;20193;-64
2021/12/20 10:21:58;;;;;;;3.50;1.70;;;2.30;99.90;;;;;;4981456;28;20222;-63
2021/12/20 10:24:33;;;;;;;6.43;1.63;;;2.50;99.90;;;;;;4984839;28;20437;-64
2021/12/20 10:26:59;;;;;;;6.87;2.13;;;2.70;99.90;;;;;;4975381;28;20203;-63
2021/12/20 10:29:25;;;;;;;3.13;1.67;;;2.80;99.90;;;;;;4984967;28;20192;-64
2021/12/20 10:31:51;;;;;;;4.37;2.03;;;2.90;99.90;;;;;;4972275;28;20202;-64
2021/12/20 10:34:19;;;;;;;6.47;1.97;;;3.10;99.90;;;;;;4984339;28;20221;-64
2021/12/20 10:36:56;;;;;;;6.73;2.10;;;3.20;99.90;;;;;;4982726;28;20216;-64
2021/12/20 10:39:33;;;;;;;4.17;1.77;;;3.40;99.90;;;;;;4977124;28;20470;-63
2021/12/20 10:42:16;;;;;;;7.40;1.83;;;3.50;99.90;;;;;;4970748;28;20216;-63
2021/12/20 10:44:42;;;;;;;5.60;2.10;;;3.60;99.90;;;;;;4964380;28;20586;-63
2021/12/20 10:47:24;;;;;;;4.40;1.70;;;3.80;99.90;;;;;;4976160;28;20208;-63
2021/12/20 10:49:50;;;;;;;6.27;1.70;;;4.00;99.90;;;;;;4972886;28;20906;-62
2021/12/20 10:52:26;;;;;;;3.50;2.23;;;4.30;99.90;;;;;;4976282;28;20201;-64
2021/12/20 10:54:51;;;;;;;5.00;1.83;;;4.50;99.90;;;;;;4980359;28;20275;-64
2021/12/20 10:57:30;;;;;;;2.67;1.87;;;4.70;99.90;;;;;;4978541;28;20289;-63
2021/12/20 11:00:16;;;;;;;4.33;1.93;;;4.80;99.90;;;;;;4974447;28;20193;-65
2021/12/20 11:03:19;;;;;;;1.63;1.53;;;5.00;99.90;;;;;;4968173;28;20245;-65
2021/12/20 11:06:13;;;;;;;4.87;1.67;;;5.10;99.90;;;;;;4975046;28;20548;-65
2021/12/20 11:11:19;;;;;;;3.33;1.67;;;5.30;99.90;;;;;;4973389;28;20233;-63
2021/12/20 11:13:46;;;;;;;2.93;1.40;;;5.30;99.90;;;;;;4985071;28;20197;-65
2021/12/20 11:16:31;;;;;;;8.20;1.90;;;5.40;99.90;;;;;;4985557;28;20405;-65
2021/12/20 11:19:17;;;;;;;1.50;1.40;;;5.70;99.90;;;;;;4987155;28;20200;-64
2021/12/20 11:21:55;;;;;;;4.17;2.10;;;6.00;99.90;;;;;;4976207;28;20232;-65
2021/12/20 11:24:23;;;;;;;2.40;1.60;;;6.10;99.90;;;;;;4923414;28;20302;-66
2021/12/20 11:26:50;;;;;;;7.70;1.97;;;6.10;99.90;;;;;;4974477;28;20212;-65
2021/12/20 11:29:16;;;;;;;3.47;1.60;;;6.20;99.90;;;;;;4987287;28;20204;-66
2021/12/20 11:31:43;;;;;;;1.90;1.43;;;6.40;99.90;;;;;;4985886;28;20212;-66
2021/12/20 11:34:08;;;;;;;3.83;1.80;;;6.70;99.90;;;;;;4987845;28;20753;-64
2021/12/20 11:36:34;;;;;;;2.87;1.60;;;6.90;99.90;;;;;;4976625;28;20221;-63
2021/12/20 11:39:00;;;;;;;3.37;1.53;;;6.80;99.90;;;;;;4982313;28;20239;-63
2021/12/20 11:41:27;;;;;;;5.73;2.10;;;7.00;99.90;;;;;;4983954;28;20208;-63
2021/12/20 11:43:55;;;;;;;4.43;1.77;;;7.30;99.90;;;;;;4982906;28;20222;-63
2021/12/20 11:46:28;;;;;;;6.10;2.53;;;7.40;99.90;;;;;;4984947;28;20634;-64
2021/12/20 11:48:56;;;;;;;3.90;1.70;;;7.70;99.90;;;;;;4975850;28;20662;-63
2021/12/20 11:51:22;;;;;;;7.13;1.73;;;7.50;99.90;;;;;;4977806;28;20207;-64
2021/12/20 11:53:47;;;;;;;2.87;1.43;;;7.20;99.90;;;;;;4979283;28;20543;-64
2021/12/20 11:56:13;;;;;;;5.03;1.87;;;7.00;99.90;;;;;;4985144;28;20230;-63
2021/12/20 11:58:46;;;;;;;4.90;2.03;;;7.00;99.90;;;;;;4976370;28;20197;-63
2021/12/20 12:01:18;;;;;;;4.80;2.03;;;7.40;99.90;;;;;;4982891;28;20230;-63
2021/12/20 12:03:55;;;;;;;3.10;1.70;;;8.10;99.90;;;;;;4976328;28;20217;-63
2021/12/20 12:06:27;;;;;;;3.87;1.50;;;8.20;99.90;;;;;;4984200;28;20296;-63
2021/12/20 12:08:57;;;;;;;3.53;1.80;;;7.80;99.90;;;;;;4978764;28;20930;-63
2021/12/20 12:11:28;;;;;;;5.80;1.70;;;7.50;99.90;;;;;;4984798;28;20674;-63
2021/12/20 12:14:01;;;;;;;6.97;1.50;;;7.50;99.90;;;;;;4967748;28;20802;-63
2021/12/20 12:16:49;;;;;;;4.63;1.90;;;7.40;99.90;;;;;;4973612;28;20703;-63
2021/12/20 12:19:43;;;;;;;6.93;3.80;;;7.60;99.90;;;;;;4986065;28;20208;-63
2021/12/20 12:22:41;;;;;;;7.00;2.93;;;8.00;99.90;;;;;;4974111;28;20291;-64
2021/12/20 12:25:13;;;;;;;5.63;2.30;;;8.10;99.90;;;;;;4981829;28;20194;-64
2021/12/20 12:27:41;;;;;;;3.43;1.27;;;7.90;99.90;;;;;;4973690;28;20205;-64
2021/12/20 12:30:15;;;;;;;2.87;1.97;;;8.30;99.90;;;;;;4986570;28;20198;-64
2021/12/20 12:32:46;;;;;;;7.17;1.73;;;8.60;99.90;;;;;;4968997;28;20198;-64
2021/12/20 12:35:37;;;;;;;3.40;1.80;;;8.40;99.90;;;;;;4986249;28;20221;-65
2021/12/20 12:38:17;;;;;;;3.63;1.73;;;8.70;99.90;;;;;;4976144;28;20202;-62
2021/12/20 12:40:46;;;;;;;2.23;1.63;;;9.00;99.90;;;;;;4958225;28;20242;-64
2021/12/20 12:43:14;;;;;;;3.67;1.77;;;9.00;99.90;;;;;;4976417;28;20761;-64
2021/12/20 12:45:59;;;;;;;5.17;1.60;;;9.20;99.90;;;;;;4983777;28;20225;-64
2021/12/20 12:48:43;;;;;;;6.50;2.20;;;9.40;99.90;;;;;;4981796;28;20290;-64
2021/12/20 12:51:18;;;;;;;3.07;1.90;;;9.20;99.90;;;;;;4983754;28;20306;-64
2021/12/20 12:53:47;;;;;;;2.63;2.10;;;8.80;99.90;;;;;;4976855;28;20202;-63
2021/12/20 12:56:27;;;;;;;5.00;1.77;;;7.70;99.90;;;;;;4984103;28;20240;-64
2021/12/20 12:59:19;;;;;;;3.83;1.80;;;6.70;99.90;;;;;;4981551;28;20276;-64
2021/12/20 13:01:57;;;;;;;6.33;2.10;;;6.20;99.90;;;;;;4967531;28;20621;-64
2021/12/20 13:04:47;;;;;;;6.40;1.63;;;5.80;99.90;;;;;;4975539;28;20284;-65
2021/12/20 13:07:26;;;;;;;6.03;1.60;;;5.40;99.90;;;;;;4985122;28;20197;-64
2021/12/20 13:09:55;;;;;;;2.37;1.50;;;5.20;99.90;;;;;;4975105;28;20208;-64
2021/12/20 13:12:52;;;;;;;2.17;1.90;;;4.90;99.90;;;;;;4985565;28;20220;-64
2021/12/20 13:15:26;;;;;;;3.20;1.60;;;4.70;99.90;;;;;;4975579;28;20208;-64
2021/12/20 13:17:56;;;;;;;4.53;1.77;;;4.50;99.90;;;;;;4972533;28;20190;-64
2021/12/20 13:20:35;;;;;;;4.80;1.87;;;4.40;99.90;;;;;;4972103;28;20528;-64
2021/12/20 13:23:02;;;;;;;4.57;1.87;;;4.30;99.90;;;;;;4971694;28;20212;-64